createdAt,value
2023-04-17T00:03:48.546Z,41.03
2023-04-17T00:07:48.843Z,41.33
2023-04-17T00:11:48.808Z,40.62
2023-04-17T00:15:49.317Z,47.58
2023-04-17T00:19:49.289Z,41.39
2023-04-17T00:23:49.132Z,46.33
2023-04-17T00:27:49.338Z,41.60
2023-04-17T00:31:49.827Z,45.93
2023-04-17T00:35:49.801Z,44.33
2023-04-17T00:39:49.592Z,46.71
2023-04-17T00:43:49.800Z,44.43
2023-04-17T00:47:49.929Z,42.00
2023-04-17T00:51:50.325Z,44.10
2023-04-17T00:55:50.316Z,42.39
2023-04-17T00:59:50.168Z,43.25
2023-04-17T01:03:50.453Z,45.37
2023-04-17T01:07:50.855Z,46.72
2023-04-17T01:11:50.560Z,42.44
2023-04-17T01:15:50.828Z,45.33
2023-04-17T01:19:50.786Z,41.63
2023-04-17T01:23:50.904Z,43.84
2023-04-17T01:27:51.370Z,45.52
2023-04-17T01:31:51.340Z,42.67
2023-04-17T01:35:51.324Z,43.71
2023-04-17T01:39:51.395Z,43.22
2023-04-17T01:43:51.506Z,40.66
2023-04-17T01:47:51.924Z,41.63
2023-04-17T01:51:51.774Z,45.18
2023-04-17T01:55:52.387Z,42.20
2023-04-17T01:59:52.005Z,42.32
2023-04-17T02:03:52.195Z,41.44
2023-04-17T02:07:52.362Z,44.92
2023-04-17T02:11:52.351Z,44.07
2023-04-17T02:15:52.913Z,43.81
2023-04-17T02:19:52.672Z,39.67
2023-04-17T02:23:52.859Z,40.89
2023-04-17T02:27:53.352Z,39.88
2023-04-17T02:31:53.411Z,40.92
2023-04-17T02:35:53.083Z,37.57
2023-04-17T02:39:53.370Z,38.44
2023-04-17T02:43:53.335Z,36.65
2023-04-17T02:47:53.921Z,38.86
2023-04-17T02:51:53.882Z,41.54
2023-04-17T02:55:53.697Z,38.80
2023-04-17T02:59:53.864Z,38.12
2023-04-17T03:03:54.088Z,38.32
2023-04-17T03:07:54.393Z,36.11
2023-04-17T03:11:54.216Z,38.24
2023-04-17T03:15:54.351Z,38.63
2023-04-17T03:19:54.470Z,41.19
2023-04-17T03:23:54.917Z,38.81
2023-04-17T03:27:54.742Z,36.42
2023-04-17T03:31:54.889Z,37.82
2023-04-17T03:35:54.972Z,35.66
2023-04-17T03:39:55.383Z,39.27
2023-04-17T03:43:55.265Z,36.66
2023-04-17T03:47:55.403Z,35.97
2023-04-17T03:51:55.504Z,37.62
2023-04-17T03:55:55.591Z,35.37
2023-04-17T03:59:55.897Z,37.13
2023-04-17T04:03:56.011Z,38.19
2023-04-17T04:07:56.376Z,36.63
2023-04-17T04:11:56.111Z,35.98
2023-04-17T04:15:56.207Z,39.12
2023-04-17T04:19:56.433Z,37.13
2023-04-17T04:23:56.445Z,39.24
2023-04-17T04:27:56.904Z,35.71
2023-04-17T04:31:56.722Z,35.96
2023-04-17T04:35:56.945Z,35.60
2023-04-17T04:39:57.424Z,35.04
2023-04-17T04:43:57.505Z,36.39
2023-04-17T04:47:57.442Z,31.00
2023-04-17T04:51:57.357Z,34.61
2023-04-17T04:55:57.908Z,35.58
2023-04-17T04:59:58.411Z,34.35
2023-04-17T05:03:57.947Z,36.38
2023-04-17T05:07:57.920Z,42.20
2023-04-17T05:11:58.013Z,57.63
2023-04-17T05:16:01.351Z,62.51
2023-04-17T05:19:58.433Z,62.77
2023-04-17T05:23:58.445Z,65.58
2023-04-17T05:27:58.399Z,63.19
2023-04-17T05:31:58.148Z,67.67
2023-04-17T05:35:58.437Z,68.68
2023-04-17T05:39:58.435Z,62.52
2023-04-17T05:43:57.928Z,65.62
2023-04-17T05:47:57.994Z,92.92
2023-04-17T05:51:57.818Z,107.30
2023-04-17T05:55:57.945Z,144.89
2023-04-17T05:59:57.984Z,166.62
2023-04-17T06:03:58.097Z,211.18
2023-04-17T06:07:57.887Z,228.54
2023-04-17T06:11:58.432Z,248.89
2023-04-17T06:15:58.152Z,250.00
2023-04-17T06:19:58.367Z,245.65
2023-04-17T06:23:58.543Z,249.76
2023-04-17T06:27:58.719Z,250.09
2023-04-17T06:31:58.870Z,250.00
2023-04-17T06:35:59.000Z,250.00
2023-04-17T06:39:59.436Z,250.42
2023-04-17T06:43:59.263Z,245.83
2023-04-17T06:47:59.464Z,249.35
2023-04-17T06:51:59.494Z,144.50
2023-04-17T06:55:59.663Z,99.85
2023-04-17T06:59:59.733Z,111.05
2023-04-17T07:03:59.924Z,131.47
2023-04-17T07:07:59.918Z,145.92
2023-04-17T07:12:00.009Z,162.52
2023-04-17T07:16:00.220Z,176.17
2023-04-17T07:20:00.344Z,185.10
2023-04-17T07:24:00.533Z,196.02
2023-04-17T07:28:01.737Z,207.55
2023-04-17T07:32:00.976Z,219.30
2023-04-17T07:36:01.061Z,225.42
2023-04-17T07:40:01.159Z,233.46
2023-04-17T07:44:01.295Z,237.75
2023-04-17T07:48:01.351Z,246.45
2023-04-17T07:52:01.433Z,180.14
2023-04-17T07:56:01.606Z,186.51
2023-04-17T08:00:01.788Z,202.41
2023-04-17T08:04:02.451Z,214.09
2023-04-17T08:08:02.052Z,222.22
2023-04-17T08:12:02.180Z,231.24
2023-04-17T08:16:02.283Z,241.01
2023-04-17T08:20:02.340Z,250.00
2023-04-17T08:24:02.389Z,247.79
2023-04-17T08:28:02.476Z,249.11
2023-04-17T08:32:13.984Z,248.94
2023-04-17T08:36:04.788Z,253.40
2023-04-17T08:40:02.488Z,249.80
2023-04-17T08:44:02.447Z,215.81
2023-04-17T08:48:02.457Z,181.01
2023-04-17T08:52:02.416Z,175.22
2023-04-17T08:56:03.795Z,154.82
2023-04-17T09:00:02.288Z,182.18
2023-04-17T09:04:02.412Z,199.04
2023-04-17T09:08:02.315Z,212.81
2023-04-17T09:12:02.354Z,223.74
2023-04-17T09:16:02.475Z,241.57
2023-04-17T09:20:02.597Z,250.00
2023-04-17T09:24:02.813Z,248.85
2023-04-17T09:28:02.998Z,248.42
2023-04-17T09:32:03.245Z,81.91
2023-04-17T09:36:03.274Z,52.00
2023-04-17T09:40:03.357Z,97.53
2023-04-17T09:44:03.531Z,112.26
2023-04-17T09:48:03.688Z,125.98
2023-04-17T09:52:03.861Z,123.00
2023-04-17T09:56:03.998Z,123.86
2023-04-17T10:00:04.127Z,124.76
2023-04-17T10:04:04.575Z,121.36
2023-04-17T10:08:04.561Z,120.10
2023-04-17T10:12:04.705Z,118.63
2023-04-17T10:16:04.914Z,118.81
2023-04-17T10:20:05.025Z,115.58
2023-04-17T10:24:05.239Z,116.30
2023-04-17T10:28:05.435Z,114.95
2023-04-17T10:32:05.685Z,110.83
2023-04-17T10:36:05.865Z,108.40
2023-04-17T10:40:06.030Z,106.39
2023-04-17T10:44:06.261Z,108.37
2023-04-17T10:48:06.590Z,106.13
2023-04-17T10:52:06.565Z,104.68
2023-04-17T10:56:06.712Z,101.58
2023-04-17T11:00:06.914Z,98.03
2023-04-17T11:04:07.066Z,96.42
2023-04-17T11:08:07.215Z,96.04
2023-04-17T11:12:07.231Z,94.62
2023-04-17T11:16:07.328Z,95.05
2023-04-17T11:20:07.372Z,93.72
2023-04-17T11:24:07.631Z,90.07
2023-04-17T11:28:07.566Z,88.44
2023-04-17T11:32:08.075Z,92.29
2023-04-17T11:36:07.718Z,88.26
2023-04-17T11:40:07.782Z,76.83
2023-04-17T11:44:07.924Z,79.46
2023-04-17T11:48:07.936Z,76.09
2023-04-17T11:52:07.958Z,75.75
2023-04-17T11:56:08.018Z,74.80
2023-04-17T12:00:08.050Z,75.74
2023-04-17T12:04:08.260Z,71.68
2023-04-17T12:08:08.221Z,73.37
2023-04-17T12:12:08.400Z,73.01
2023-04-17T12:16:08.367Z,72.12
2023-04-17T12:20:08.426Z,71.49
2023-04-17T12:24:08.453Z,69.36
2023-04-17T12:28:08.525Z,69.50
2023-04-17T12:32:08.656Z,67.85
2023-04-17T12:36:08.737Z,67.69
2023-04-17T12:40:08.788Z,66.01
2023-04-17T12:44:08.799Z,65.35
2023-04-17T12:48:08.861Z,65.41
2023-04-17T12:52:08.893Z,63.30
2023-04-17T12:56:08.960Z,63.20
2023-04-17T13:04:28.350Z,25.00
2023-04-17T13:08:27.891Z,26.54
2023-04-17T13:12:27.878Z,28.16
2023-04-17T13:16:27.842Z,27.98
2023-04-17T13:20:27.821Z,26.44
2023-04-17T13:24:27.742Z,26.34
2023-04-17T13:28:27.698Z,33.30
2023-04-17T13:32:27.745Z,27.38
2023-04-17T13:36:27.629Z,29.47
2023-04-17T13:40:27.614Z,29.64
2023-04-17T13:44:27.577Z,29.75
2023-04-17T13:48:27.544Z,30.18
2023-04-17T13:52:27.482Z,29.52
2023-04-17T13:56:27.460Z,31.95
2023-04-17T14:00:27.451Z,32.52
2023-04-17T14:04:27.503Z,26.20
2023-04-17T14:08:27.360Z,27.72
2023-04-17T14:12:27.302Z,28.15
2023-04-17T14:16:27.357Z,28.82
2023-04-17T14:20:27.247Z,33.41
2023-04-17T14:24:27.270Z,25.35
2023-04-17T14:28:27.176Z,29.92
2023-04-17T14:32:27.164Z,27.94
2023-04-17T14:36:27.138Z,25.31
2023-04-17T14:40:27.268Z,27.11
2023-04-17T14:44:27.269Z,29.94
2023-04-17T14:48:36.238Z,25.00
2023-04-17T14:52:28.247Z,28.08
2023-04-17T14:56:27.198Z,30.45
2023-04-17T15:00:27.188Z,31.72
2023-04-17T15:04:27.281Z,29.50
2023-04-17T15:08:27.078Z,31.61
2023-04-17T15:12:27.033Z,30.70
2023-04-17T15:16:27.022Z,32.18
2023-04-17T15:20:26.987Z,29.35
2023-04-17T15:24:26.948Z,26.57
2023-04-17T15:28:27.013Z,26.33
2023-04-17T15:32:26.956Z,28.07
2023-04-17T15:36:26.815Z,28.13
2023-04-17T15:40:26.804Z,29.05
2023-04-17T15:44:26.771Z,30.09
2023-04-17T15:48:26.758Z,35.13
2023-04-17T15:52:26.846Z,33.66
2023-04-17T15:56:26.940Z,32.90
2023-04-17T16:00:26.908Z,27.16
2023-04-17T16:04:27.051Z,31.02
2023-04-17T16:08:27.012Z,30.84
2023-04-17T16:12:27.075Z,26.22
2023-04-17T16:16:27.255Z,33.38
2023-04-17T16:20:27.225Z,25.25
2023-04-17T16:24:27.265Z,30.12
2023-04-17T16:28:27.292Z,27.95
2023-04-17T16:32:27.453Z,30.22
2023-04-17T16:36:27.434Z,0.00
2023-04-17T16:40:27.622Z,0.00
2023-04-17T16:44:27.702Z,20.73
2023-04-17T16:48:27.898Z,25.00
2023-04-17T16:52:27.898Z,25.59
2023-04-17T16:56:27.960Z,34.26
2023-04-17T17:00:28.057Z,25.00
2023-04-17T17:04:28.191Z,28.79
2023-04-17T17:08:28.288Z,38.89
2023-04-17T17:12:28.374Z,32.98
2023-04-17T17:16:28.585Z,27.80
2023-04-17T17:20:28.822Z,40.66
2023-04-17T17:24:28.986Z,23.95
2023-04-17T17:28:29.173Z,43.31
2023-04-17T17:32:29.330Z,63.23
2023-04-17T17:36:29.454Z,67.82
2023-04-17T17:40:29.564Z,78.73
2023-04-17T17:44:29.703Z,62.17
2023-04-17T17:48:29.757Z,82.44
2023-04-17T17:52:29.799Z,92.94
2023-04-17T17:56:29.843Z,86.05
2023-04-17T18:00:29.927Z,206.01
2023-04-17T18:04:30.178Z,251.16
2023-04-17T18:08:30.210Z,230.02
2023-04-17T18:12:30.268Z,245.43
2023-04-17T18:16:30.332Z,249.28
2023-04-17T18:20:30.423Z,244.17
2023-04-17T18:24:30.548Z,246.26
2023-04-17T18:28:30.722Z,247.73
2023-04-17T18:32:30.959Z,247.63
2023-04-17T18:36:31.104Z,245.35
2023-04-17T18:40:31.294Z,248.31
2023-04-17T18:44:31.524Z,244.25
2023-04-17T18:48:31.687Z,249.47
2023-04-17T18:52:31.818Z,248.73
2023-04-17T18:56:31.958Z,249.79
2023-04-17T19:00:32.154Z,249.27
2023-04-17T19:04:32.291Z,248.74
2023-04-17T19:08:32.460Z,248.55
2023-04-17T19:12:32.585Z,248.94
2023-04-17T19:16:32.766Z,248.69
2023-04-17T19:20:33.779Z,249.51
2023-04-17T19:24:32.968Z,247.70
2023-04-17T19:28:33.070Z,246.72
2023-04-17T19:32:33.195Z,247.46
2023-04-17T19:36:33.310Z,247.69
2023-04-17T19:40:33.368Z,247.30
2023-04-17T19:44:33.512Z,246.72
2023-04-17T19:48:33.584Z,246.59
2023-04-17T19:52:33.663Z,247.54
2023-04-17T19:56:33.785Z,247.17
2023-04-17T20:00:33.908Z,248.59
2023-04-17T20:04:34.029Z,244.11
2023-04-17T20:08:34.093Z,248.02
2023-04-17T20:12:34.231Z,248.69
2023-04-17T20:16:34.385Z,248.07
2023-04-17T20:20:36.565Z,249.77
2023-04-17T20:24:34.582Z,247.66
2023-04-17T20:28:34.586Z,247.23
2023-04-17T20:32:34.682Z,245.68
2023-04-17T20:36:34.782Z,247.12
2023-04-17T20:40:34.840Z,246.93
2023-04-17T20:44:34.937Z,247.33
2023-04-17T20:48:35.037Z,248.49
2023-04-17T20:52:35.099Z,245.28
2023-04-17T20:56:35.160Z,246.65
2023-04-17T21:00:35.265Z,248.41
2023-04-17T21:04:35.342Z,247.37
2023-04-17T21:08:35.418Z,246.33
2023-04-17T21:12:35.494Z,247.09
2023-04-17T21:16:35.639Z,245.17
2023-04-17T21:20:35.609Z,247.51
2023-04-17T21:24:35.691Z,247.09
2023-04-17T21:28:35.730Z,246.51
2023-04-17T21:32:35.812Z,247.13
2023-04-17T21:36:35.824Z,246.17
2023-04-17T21:40:36.833Z,247.14
2023-04-17T21:44:35.980Z,245.94
2023-04-17T21:48:36.055Z,249.42
2023-04-17T21:52:36.098Z,246.14
2023-04-17T21:56:36.155Z,246.77
2023-04-17T22:00:36.211Z,247.05
2023-04-17T22:04:36.317Z,245.81
2023-04-17T22:08:36.308Z,246.40
2023-04-17T22:12:36.331Z,247.54
2023-04-17T22:16:36.454Z,247.56
2023-04-17T22:20:36.449Z,246.29
2023-04-17T22:24:36.522Z,246.15
2023-04-17T22:28:36.586Z,246.26
2023-04-17T22:32:36.655Z,246.45
2023-04-17T22:36:36.718Z,246.20
2023-04-17T22:40:36.796Z,243.07
2023-04-17T22:44:36.784Z,244.78
2023-04-17T22:48:36.827Z,244.04
2023-04-17T22:52:36.860Z,244.27
2023-04-17T22:56:36.905Z,243.54
2023-04-17T23:00:36.975Z,241.75
2023-04-17T23:04:37.055Z,244.73
2023-04-17T23:08:37.070Z,241.20
2023-04-17T23:12:37.170Z,242.44
2023-04-17T23:16:37.214Z,241.63
2023-04-17T23:20:37.249Z,242.82
2023-04-17T23:24:37.292Z,239.75
2023-04-17T23:28:37.316Z,240.62
2023-04-17T23:32:37.465Z,241.40
2023-04-17T23:36:37.438Z,240.81
2023-04-17T23:40:37.469Z,240.16
2023-04-17T23:44:37.621Z,239.27
2023-04-17T23:48:37.547Z,241.05
2023-04-17T23:52:37.655Z,237.87
2023-04-17T23:56:37.692Z,240.07
